Time;durP1;ratioP1;P1;durP2;ratioP2;P2;SDS_P1;SDS_P2;PMS_P1;PMS_P2;Temp;Humidity;BMP_temperature;BMP_pressure;BME280_temperature;BME280_humidity;BME280_pressure;Samples;Min_cycle;Max_cycle;Signal;HPM_P1;HPM_P2
2021/05/27 00:00:33;;;;;;;0.73;0.73;;;;;;;17.26;100.00;97304.19;5009675;28;20117;-80
2021/05/27 00:02:59;;;;;;;0.52;0.52;;;;;;;17.29;100.00;97303.03;4997917;28;20030;-80
2021/05/27 00:05:25;;;;;;;1.08;0.93;;;;;;;17.20;100.00;97302.06;4989134;28;20033;-79
2021/05/27 00:07:51;;;;;;;0.55;0.52;;;;;;;17.27;100.00;97300.50;5013097;28;20029;-80
2021/05/27 00:10:19;;;;;;;2.08;1.08;;;;;;;17.29;100.00;97301.22;4988142;28;20033;-80
2021/05/27 00:12:45;;;;;;;2.25;1.52;;;;;;;17.27;100.00;97311.31;5005749;28;20026;-80
2021/05/27 00:15:12;;;;;;;2.00;1.05;;;;;;;17.22;100.00;97307.34;5011476;28;20068;-80
2021/05/27 00:17:39;;;;;;;1.40;0.90;;;;;;;17.10;100.00;97292.25;5014891;28;20032;-80
2021/05/27 00:20:06;;;;;;;1.50;0.73;;;;;;;17.07;100.00;97315.00;4997048;28;20073;-80
2021/05/27 00:22:31;;;;;;;1.30;1.05;;;;;;;17.11;100.00;97315.56;5005552;28;20033;-80
2021/05/27 00:24:57;;;;;;;3.10;0.93;;;;;;;17.02;100.00;97311.88;5016894;28;20078;-81
2021/05/27 00:27:22;;;;;;;1.05;0.47;;;;;;;17.00;100.00;97319.28;5000905;28;20030;-80
2021/05/27 00:29:49;;;;;;;0.85;0.60;;;;;;;16.99;100.00;97311.28;5004684;28;20073;-80
2021/05/27 00:32:14;;;;;;;1.80;1.20;;;;;;;16.94;100.00;97300.06;5011517;28;20038;-80
2021/05/27 00:34:40;;;;;;;0.88;0.75;;;;;;;16.99;100.00;97309.44;5014289;28;20033;-80
2021/05/27 00:37:05;;;;;;;2.80;1.42;;;;;;;16.93;100.00;97306.44;5009365;28;20030;-80
2021/05/27 00:39:31;;;;;;;2.15;1.38;;;;;;;16.90;100.00;97306.72;5007674;28;20052;-80
2021/05/27 00:41:58;;;;;;;1.67;0.80;;;;;;;16.86;100.00;97305.31;5015854;28;20025;-80
2021/05/27 00:44:25;;;;;;;1.95;0.60;;;;;;;16.92;100.00;97312.88;5007547;28;20467;-80
2021/05/27 00:46:52;;;;;;;1.17;1.00;;;;;;;16.87;100.00;97307.00;5015559;28;20413;-80
2021/05/27 00:49:17;;;;;;;2.60;0.93;;;;;;;16.82;100.00;97303.88;4999874;28;20041;-80
2021/05/27 00:51:44;;;;;;;1.30;1.20;;;;;;;16.86;100.00;97308.84;5005754;28;20044;-78
2021/05/27 00:54:11;;;;;;;1.58;0.93;;;;;;;16.82;100.00;97304.75;5022012;28;20433;-78
2021/05/27 00:56:36;;;;;;;1.42;1.08;;;;;;;16.84;100.00;97308.16;5004175;28;20567;-78
2021/05/27 00:59:04;;;;;;;2.13;1.23;;;;;;;16.80;100.00;97310.25;4980355;28;20084;-78
2021/05/27 01:01:30;;;;;;;5.22;1.05;;;;;;;16.73;100.00;97317.22;4979920;28;20069;-78
2021/05/27 01:03:55;;;;;;;1.50;1.10;;;;;;;16.67;100.00;97300.72;5013059;28;20138;-79
2021/05/27 01:06:21;;;;;;;10.45;1.08;;;;;;;16.63;100.00;97304.69;5015573;28;20516;-78
2021/05/27 01:08:46;;;;;;;0.50;0.50;;;;;;;16.62;100.00;97306.53;4997573;28;20493;-78
2021/05/27 01:11:15;;;;;;;1.08;0.98;;;;;;;16.56;100.00;97309.78;4987782;28;20034;-78
2021/05/27 01:13:40;;;;;;;1.35;1.10;;;;;;;16.58;100.00;97313.19;5022302;28;20057;-79
2021/05/27 01:16:11;;;;;;;2.90;1.20;;;;;;;16.51;100.00;97303.91;5011128;28;20053;-78
2021/05/27 01:18:37;;;;;;;0.73;0.70;;;;;;;16.51;100.00;97300.34;4987997;28;20095;-78
2021/05/27 01:21:03;;;;;;;4.60;1.33;;;;;;;16.52;100.00;97308.31;5006789;28;20021;-79
2021/05/27 01:23:30;;;;;;;1.08;0.70;;;;;;;16.50;100.00;97304.91;5015014;28;20390;-79
2021/05/27 01:25:57;;;;;;;1.92;1.25;;;;;;;16.53;100.00;97303.75;5012607;28;20100;-78
2021/05/27 01:28:25;;;;;;;2.63;1.15;;;;;;;16.49;100.00;97310.44;4985820;28;20041;-78
2021/05/27 01:30:50;;;;;;;0.82;0.82;;;;;;;16.46;100.00;97308.84;5013477;28;20040;-77
2021/05/27 01:33:17;;;;;;;1.70;0.88;;;;;;;16.46;100.00;97297.19;5003717;28;20018;-77
2021/05/27 01:35:43;;;;;;;3.10;1.13;;;;;;;16.43;100.00;97297.47;4995959;28;20021;-77
2021/05/27 01:38:14;;;;;;;2.47;1.70;;;;;;;16.51;100.00;97306.63;5006448;28;20052;-77
2021/05/27 01:40:41;;;;;;;2.45;0.77;;;;;;;16.52;100.00;97304.78;4996363;28;20032;-78
2021/05/27 01:43:06;;;;;;;0.93;0.70;;;;;;;16.52;100.00;97308.31;5007606;28;20392;-77
2021/05/27 01:45:33;;;;;;;2.30;1.20;;;;;;;16.51;100.00;97309.31;5007071;28;20033;-78
2021/05/27 01:47:58;;;;;;;1.88;1.02;;;;;;;16.44;100.00;97304.59;5003805;28;20040;-77
2021/05/27 01:50:24;;;;;;;1.40;1.23;;;;;;;16.46;100.00;97303.44;5003373;28;20033;-77
2021/05/27 01:52:51;;;;;;;1.05;0.90;;;;;;;16.44;100.00;97294.66;5022249;28;20033;-77
2021/05/27 01:55:17;;;;;;;3.47;2.45;;;;;;;16.49;100.00;97292.38;4993774;28;20089;-78
2021/05/27 01:57:42;;;;;;;1.83;1.40;;;;;;;16.42;100.00;97288.53;4979091;28;20134;-76
2021/05/27 02:00:08;;;;;;;1.30;1.15;;;;;;;16.44;100.00;97283.84;5013685;28;20108;-77
2021/05/27 02:02:34;;;;;;;3.30;1.13;;;;;;;16.44;100.00;97289.25;5014379;28;20033;-77
2021/05/27 02:05:00;;;;;;;1.70;1.38;;;;;;;16.44;100.00;97294.66;4987129;28;20083;-77
2021/05/27 02:07:27;;;;;;;2.95;1.55;;;;;;;16.45;100.00;97293.66;5009055;28;20040;-77
2021/05/27 02:09:53;;;;;;;1.73;1.38;;;;;;;16.45;100.00;97293.66;5006393;28;20037;-77
2021/05/27 02:12:19;;;;;;;3.35;1.60;;;;;;;16.42;100.00;97291.25;5014665;28;20040;-77
2021/05/27 02:14:44;;;;;;;2.40;1.60;;;;;;;16.43;100.00;97303.72;5004908;28;20036;-77
2021/05/27 02:17:10;;;;;;;0.95;0.95;;;;;;;16.34;100.00;97298.28;4978343;28;20386;-77
2021/05/27 02:19:36;;;;;;;0.70;0.70;;;;;;;16.29;100.00;97301.41;5019830;28;20060;-77
2021/05/27 02:22:01;;;;;;;1.25;1.15;;;;;;;16.25;100.00;97290.03;4995703;28;20034;-77
2021/05/27 02:24:27;;;;;;;1.85;1.42;;;;;;;16.22;100.00;97306.50;5000620;28;20037;-77
2021/05/27 02:26:53;;;;;;;3.58;1.05;;;;;;;16.20;100.00;97304.94;4988913;28;20395;-78
2021/05/27 02:29:19;;;;;;;1.17;1.00;;;;;;;16.26;100.00;97304.38;4998055;28;20504;-77
2021/05/27 02:31:44;;;;;;;1.77;1.52;;;;;;;16.19;100.00;97306.78;5014062;28;20037;-77
2021/05/27 02:34:10;;;;;;;0.68;0.68;;;;;;;16.17;100.00;97299.81;5002566;28;20030;-77
2021/05/27 02:36:35;;;;;;;3.35;1.55;;;;;;;16.14;100.00;97300.09;5009216;28;20116;-77
2021/05/27 02:39:01;;;;;;;0.60;0.60;;;;;;;16.11;100.00;97295.81;5003917;28;20038;-77
2021/05/27 02:41:27;;;;;;;1.65;1.17;;;;;;;16.08;100.00;97289.81;5008223;28;20187;-78
2021/05/27 02:43:52;;;;;;;0.90;0.65;;;;;;;16.03;100.00;97295.63;4989166;28;20044;-77
2021/05/27 02:46:18;;;;;;;4.82;1.50;;;;;;;15.97;100.00;97289.91;5007238;28;20485;-78
2021/05/27 02:48:44;;;;;;;1.77;1.00;;;;;;;15.94;100.00;97284.78;5014405;28;20038;-78
2021/05/27 02:51:09;;;;;;;0.85;0.77;;;;;;;15.99;100.00;97294.19;5014401;28;20045;-78
2021/05/27 02:53:35;;;;;;;2.75;0.98;;;;;;;15.92;100.00;97294.84;5023770;28;20033;-78
2021/05/27 02:56:00;;;;;;;0.75;0.75;;;;;;;15.86;100.00;97290.00;5023672;28;20136;-78
2021/05/27 02:58:26;;;;;;;2.70;0.77;;;;;;;15.84;100.00;97302.78;5009147;28;20057;-78
2021/05/27 03:00:53;;;;;;;0.77;0.77;;;;;;;15.84;100.00;97294.69;4994194;28;20040;-76
2021/05/27 03:03:21;;;;;;;0.35;0.35;;;;;;;15.83;100.00;97296.50;5009909;28;20037;-78
2021/05/27 03:05:50;;;;;;;3.28;1.73;;;;;;;15.79;100.00;97294.19;5019894;28;20034;-76
2021/05/27 03:08:16;;;;;;;3.10;1.08;;;;;;;15.86;100.00;97295.38;4986040;28;20083;-78
2021/05/27 03:10:42;;;;;;;0.77;0.38;;;;;;;15.88;100.00;97283.47;4984834;28;20029;-76
2021/05/27 03:13:08;;;;;;;3.28;1.38;;;;;;;15.95;100.00;97291.88;5013895;28;20040;-77
2021/05/27 03:15:34;;;;;;;1.48;1.05;;;;;;;16.04;100.00;97297.34;5014062;28;20052;-77
2021/05/27 03:18:05;;;;;;;3.88;1.50;;;;;;;16.01;100.00;97288.66;4979965;28;20449;-78
2021/05/27 03:20:30;;;;;;;0.85;0.85;;;;;;;16.08;100.00;97292.53;5026195;28;20025;-78
2021/05/27 03:22:56;;;;;;;0.88;0.88;;;;;;;16.08;100.00;97282.59;4984587;28;20028;-78
2021/05/27 03:25:22;;;;;;;2.05;1.08;;;;;;;16.17;100.00;97287.19;5009715;28;20095;-77
2021/05/27 03:27:48;;;;;;;1.75;1.63;;;;;;;16.30;100.00;97296.88;5010704;28;20504;-78
2021/05/27 03:30:14;;;;;;;10.32;1.48;;;;;;;16.35;100.00;97292.78;5008559;28;20076;-78
2021/05/27 03:32:40;;;;;;;1.58;1.17;;;;;;;16.40;100.00;97289.66;5016976;28;20025;-77
2021/05/27 03:35:09;;;;;;;0.88;0.88;;;;;;;16.47;100.00;97288.97;5007707;28;20084;-78
2021/05/27 03:37:35;;;;;;;3.85;1.27;;;;;;;16.53;100.00;97298.38;5010921;28;20116;-77
2021/05/27 03:40:13;;;;;;;1.83;1.00;;;;;;;16.59;100.00;97301.41;5000327;28;20121;-77
2021/05/27 03:42:46;;;;;;;1.13;1.02;;;;;;;16.57;100.00;97299.84;4999556;28;20022;-79
2021/05/27 03:45:20;;;;;;;1.67;0.93;;;;;;;16.58;100.00;97301.56;4997594;28;20026;-82
2021/05/27 03:47:45;;;;;;;2.33;1.70;;;;;;;16.47;100.00;97278.16;5005073;28;20026;-77
2021/05/27 03:50:13;;;;;;;1.85;0.98;;;;;;;16.59;100.00;97303.25;5016336;28;20045;-77
2021/05/27 03:52:39;;;;;;;1.23;0.88;;;;;;;16.59;100.00;97293.31;5005579;28;20215;-78
2021/05/27 03:55:06;;;;;;;5.18;1.50;;;;;;;16.68;100.00;97299.72;5031929;28;20167;-79
2021/05/27 03:57:32;;;;;;;0.77;0.77;;;;;;;16.78;100.00;97300.59;5008811;28;20465;-78
2021/05/27 04:02:45;;;;;;;3.15;1.45;;;;;;;17.16;100.00;97279.03;5013871;28;20036;-78
2021/05/27 04:07:56;;;;;;;1.20;0.75;;;;;;;17.37;100.00;97295.09;5012267;28;20037;-79
2021/05/27 04:10:22;;;;;;;1.50;1.15;;;;;;;17.54;100.00;97296.19;5014345;28;20029;-77
2021/05/27 04:12:48;;;;;;;2.20;1.23;;;;;;;17.72;100.00;97295.34;4997225;28;20037;-81
2021/05/27 04:15:20;;;;;;;1.30;1.20;;;;;;;17.86;100.00;97305.75;4999686;28;20033;-83
2021/05/27 04:17:47;;;;;;;1.05;0.73;;;;;;;18.03;100.00;97297.84;5000305;28;20060;-81
2021/05/27 04:20:12;;;;;;;0.57;0.57;;;;;;;18.16;100.00;97303.78;4989899;28;20037;-76
2021/05/27 04:22:42;;;;;;;1.58;1.05;;;;;;;18.22;100.00;97308.63;4989093;28;20078;-77
2021/05/27 04:25:09;;;;;;;0.82;0.82;;;;;;;18.28;100.00;97313.44;4999702;28;20026;-76
2021/05/27 04:27:35;;;;;;;1.00;1.00;;;;;;;18.40;100.00;97313.09;4996784;28;20025;-78
2021/05/27 04:30:12;;;;;;;2.40;1.02;;;;;;;18.41;100.00;97314.81;4998072;28;20046;-78
2021/05/27 04:32:55;;;;;;;3.05;1.77;;;;;;;18.50;100.00;97326.63;5010126;28;20040;-77
2021/05/27 04:35:23;;;;;;;0.93;0.73;;;;;;;18.67;100.00;97331.25;5007871;28;20638;-78
2021/05/27 04:37:50;;;;;;;3.53;2.17;;;;;;;18.78;100.00;97341.91;4993822;28;20084;-78
2021/05/27 04:40:15;;;;;;;0.95;0.95;;;;;;;19.10;100.00;97337.88;4991546;28;20482;-78
2021/05/27 04:42:41;;;;;;;1.33;0.98;;;;;;;19.39;100.00;97344.81;4994798;28;20120;-77
2021/05/27 04:45:07;;;;;;;1.60;0.95;;;;;;;19.42;100.00;97338.22;4979661;28;20095;-77
2021/05/27 04:47:33;;;;;;;0.98;0.98;;;;;;;19.61;100.00;97346.22;5007403;28;20453;-78
2021/05/27 04:49:58;;;;;;;21.75;2.03;;;;;;;19.80;100.00;97339.75;5000504;28;20026;-77
2021/05/27 04:52:24;;;;;;;1.38;1.02;;;;;;;19.95;100.00;97338.19;5012019;28;20033;-78
2021/05/27 04:54:49;;;;;;;6.45;1.33;;;;;;;20.11;100.00;97351.88;4979472;28;20069;-78
2021/05/27 04:57:15;;;;;;;0.70;0.70;;;;;;;20.07;100.00;97338.78;5011942;28;20033;-77
2021/05/27 04:59:40;;;;;;;3.88;1.80;;;;;;;20.17;99.20;97344.97;4999784;28;20032;-77
2021/05/27 05:02:06;;;;;;;2.15;1.33;;;;;;;20.21;99.94;97349.91;4991201;28;20041;-78
2021/05/27 05:04:31;;;;;;;3.63;1.42;;;;;;;20.17;99.06;97342.25;4987320;28;20053;-78
2021/05/27 05:06:57;;;;;;;1.25;1.15;;;;;;;20.25;98.27;97345.00;4979266;28;20116;-77
2021/05/27 05:09:22;;;;;;;2.72;1.20;;;;;;;20.37;97.61;97350.03;5003496;28;20034;-78
2021/05/27 05:11:48;;;;;;;1.70;1.10;;;;;;;20.56;96.81;97357.13;5000611;28;20032;-78
2021/05/27 05:14:14;;;;;;;2.35;0.98;;;;;;;20.64;96.39;97346.28;4998248;28;20489;-77
2021/05/27 05:16:39;;;;;;;1.30;0.88;;;;;;;20.76;96.02;97355.88;4999399;28;20025;-78
2021/05/27 05:19:05;;;;;;;0.85;0.85;;;;;;;20.65;95.53;97358.88;4991486;28;20026;-78
2021/05/27 05:21:30;;;;;;;2.78;1.70;;;;;;;20.92;95.05;97357.78;5011298;28;20040;-78
2021/05/27 05:23:56;;;;;;;1.98;1.17;;;;;;;21.21;92.31;97351.97;4984391;28;20413;-78
2021/05/27 05:26:21;;;;;;;2.60;1.55;;;;;;;21.48;90.75;97362.59;5032061;28;20429;-78
2021/05/27 05:28:47;;;;;;;0.55;0.55;;;;;;;21.56;88.53;97363.44;5006742;28;20042;-79
2021/05/27 05:31:13;;;;;;;1.05;0.90;;;;;;;21.73;87.02;97358.88;4992848;28;20023;-79
2021/05/27 05:33:38;;;;;;;0.70;0.70;;;;;;;21.86;87.73;97356.53;4978319;28;20034;-78
2021/05/27 05:36:04;;;;;;;0.95;0.95;;;;;;;21.53;87.56;97354.78;5012730;28;20026;-79
2021/05/27 05:38:29;;;;;;;1.20;0.85;;;;;;;21.34;88.55;97357.81;5009249;28;20507;-78
2021/05/27 05:40:55;;;;;;;0.82;0.82;;;;;;;21.46;89.51;97356.47;4998152;28;20445;-79
2021/05/27 05:43:20;;;;;;;1.98;1.20;;;;;;;21.48;89.27;97354.44;5010322;28;20402;-79
2021/05/27 05:45:46;;;;;;;2.40;1.83;;;;;;;21.47;87.97;97353.56;4978322;28;20113;-78
2021/05/27 05:48:12;;;;;;;4.03;1.35;;;;;;;21.43;87.66;97351.38;5011111;28;20034;-79
2021/05/27 05:50:48;;;;;;;1.13;0.82;;;;;;;21.42;90.35;97355.94;4994417;28;20041;-79
2021/05/27 05:53:16;;;;;;;3.00;1.48;;;;;;;21.47;90.19;97360.91;5012058;28;20067;-79
2021/05/27 05:55:42;;;;;;;1.23;1.13;;;;;;;21.59;88.13;97362.28;5000463;28;20018;-78
2021/05/27 05:58:07;;;;;;;2.10;1.20;;;;;;;21.60;87.92;97359.38;4984939;28;20036;-79
2021/05/27 06:00:34;;;;;;;2.10;1.42;;;;;;;21.70;87.71;97353.78;5008713;28;20044;-80
2021/05/27 06:02:59;;;;;;;1.17;0.82;;;;;;;21.71;86.46;97344.59;4966604;28;20113;-78
2021/05/27 06:05:25;;;;;;;4.38;1.48;;;;;;;22.01;84.39;97341.22;5011563;28;20083;-79
2021/05/27 06:07:51;;;;;;;2.45;1.48;;;;;;;23.22;78.31;97357.25;4994221;28;20022;-79
2021/05/27 06:10:17;;;;;;;1.13;0.80;;;;;;;24.04;74.34;97358.47;5003137;28;20401;-79
2021/05/27 06:12:42;;;;;;;1.85;1.27;;;;;;;24.53;72.32;97360.75;4974590;28;20500;-79
2021/05/27 06:15:08;;;;;;;1.48;1.20;;;;;;;24.62;71.78;97370.59;4994146;28;20027;-79
2021/05/27 06:17:35;;;;;;;3.35;1.15;;;;;;;24.39;72.33;97365.19;4997116;28;20466;-79
2021/05/27 06:20:01;;;;;;;0.70;0.70;;;;;;;24.77;71.61;97374.19;4974866;28;20038;-79
2021/05/27 06:22:26;;;;;;;6.53;1.50;;;;;;;24.41;71.69;97365.00;4958255;28;20634;-80
2021/05/27 06:24:52;;;;;;;0.65;0.55;;;;;;;24.40;71.91;97360.56;4958429;28;20018;-79
2021/05/27 06:27:17;;;;;;;1.02;0.98;;;;;;;24.51;73.31;97360.13;4958236;28;20026;-79
2021/05/27 06:29:43;;;;;;;0.85;0.85;;;;;;;24.62;72.10;97357.75;5000481;28;20422;-79
2021/05/27 06:32:09;;;;;;;0.60;0.57;;;;;;;25.25;68.74;97357.22;4977920;28;20196;-79
2021/05/27 06:34:34;;;;;;;0.50;0.50;;;;;;;25.08;68.82;97361.19;5010168;28;20022;-79
2021/05/27 06:37:00;;;;;;;1.13;0.80;;;;;;;25.59;67.95;97353.00;4988846;28;20029;-79
2021/05/27 06:39:26;;;;;;;0.88;0.75;;;;;;;26.20;65.40;97357.91;4979385;28;20402;-79
2021/05/27 06:41:55;;;;;;;0.68;0.68;;;;;;;26.55;63.41;97353.31;5011426;28;20028;-79
2021/05/27 06:44:21;;;;;;;0.60;0.60;;;;;;;26.41;62.16;97357.00;4994156;28;20026;-79
2021/05/27 06:46:46;;;;;;;0.82;0.70;;;;;;;26.42;63.77;97361.47;4993474;28;20508;-79
2021/05/27 06:49:12;;;;;;;0.35;0.35;;;;;;;27.30;60.39;97356.13;5003763;28;20113;-80
2021/05/27 06:51:39;;;;;;;0.45;0.40;;;;;;;28.95;54.25;97360.00;4958200;28;20473;-79
2021/05/27 06:54:05;;;;;;;1.20;0.98;;;;;;;30.99;49.14;97362.50;4965825;28;20065;-80
2021/05/27 06:56:31;;;;;;;1.02;0.93;;;;;;;31.75;45.56;97362.09;4997210;28;20034;-79
2021/05/27 06:58:56;;;;;;;0.57;0.57;;;;;;;33.16;41.25;97360.31;4978756;28;20030;-80
2021/05/27 07:01:22;;;;;;;1.05;0.93;;;;;;;34.05;39.05;97359.72;5011165;28;20091;-80
2021/05/27 07:03:48;;;;;;;0.43;0.35;;;;;;;34.85;37.27;97376.22;4997319;28;20084;-80
2021/05/27 07:06:13;;;;;;;0.88;0.85;;;;;;;34.76;37.17;97367.44;5013681;28;20034;-78
2021/05/27 07:08:39;;;;;;;3.03;1.50;;;;;;;34.93;38.38;97377.72;5013679;28;20029;-79
2021/05/27 07:11:05;;;;;;;1.05;0.90;;;;;;;34.93;36.81;97372.16;5013689;28;20516;-79
2021/05/27 07:13:31;;;;;;;0.38;0.35;;;;;;;34.61;38.20;97375.53;5013745;28;20125;-79
2021/05/27 07:15:56;;;;;;;2.13;1.08;;;;;;;34.29;37.35;97372.44;5001854;28;20089;-79
2021/05/27 07:18:22;;;;;;;1.02;0.82;;;;;;;33.44;37.78;97374.22;4997776;28;20046;-79
2021/05/27 07:20:47;;;;;;;2.42;1.52;;;;;;;31.17;42.57;97359.75;4977432;28;20042;-78
2021/05/27 07:23:14;;;;;;;0.43;0.40;;;;;;;32.44;40.32;97362.34;4977831;28;20026;-79
2021/05/27 07:25:40;;;;;;;0.52;0.52;;;;;;;32.84;39.26;97367.25;5000622;28;20505;-79
2021/05/27 07:28:05;;;;;;;0.40;0.40;;;;;;;32.56;38.74;97354.09;5008697;28;20064;-78
2021/05/27 07:30:32;;;;;;;0.65;0.65;;;;;;;32.25;39.21;97363.50;4991227;28;20033;-79
2021/05/27 07:32:58;;;;;;;1.98;1.00;;;;;;;33.02;39.60;97354.13;4981011;28;20040;-79
2021/05/27 07:35:28;;;;;;;0.85;0.63;;;;;;;33.92;37.27;97353.63;4980812;28;20038;-79
2021/05/27 07:37:54;;;;;;;1.95;0.95;;;;;;;34.64;35.78;97361.13;4997236;28;21936;-79
2021/05/27 07:40:20;;;;;;;0.70;0.60;;;;;;;34.04;35.55;97351.63;4980193;28;20034;-79
2021/05/27 07:42:46;;;;;;;0.85;0.68;;;;;;;33.33;37.47;97358.47;4996676;28;20034;-79
2021/05/27 07:45:12;;;;;;;0.55;0.55;;;;;;;34.64;37.08;97369.47;4996749;28;20034;-78
2021/05/27 07:47:37;;;;;;;2.38;1.00;;;;;;;32.92;38.47;97356.63;4980412;28;20489;-78
2021/05/27 07:50:06;;;;;;;1.90;0.88;;;;;;;34.73;36.79;97359.63;4996856;28;20053;-78
2021/05/27 07:52:31;;;;;;;0.50;0.50;;;;;;;35.55;34.47;97359.78;5014270;28;20033;-79
2021/05/27 07:54:57;;;;;;;0.43;0.38;;;;;;;35.43;34.14;97352.66;4996518;28;20522;-79
2021/05/27 07:57:23;;;;;;;0.40;0.40;;;;;;;35.40;35.07;97355.94;4996714;28;20489;-80
2021/05/27 07:59:49;;;;;;;0.93;0.63;;;;;;;36.99;33.06;97357.22;4996245;28;20044;-79
2021/05/27 08:02:14;;;;;;;1.02;0.82;;;;;;;35.89;33.75;97354.94;4996821;28;20452;-79
2021/05/27 08:04:42;;;;;;;2.72;0.88;;;;;;;34.79;36.91;97355.00;5014239;28;20033;-79
2021/05/27 08:07:11;;;;;;;0.77;0.70;;;;;;;33.97;37.98;97350.94;4995907;28;20029;-79
2021/05/27 08:09:37;;;;;;;5.93;2.08;;;;;;;34.48;37.72;97350.00;4980139;28;20029;-79
2021/05/27 08:12:03;;;;;;;16.45;6.65;;;;;;;34.35;38.17;97344.75;4979998;28;20485;-79
2021/05/27 08:14:29;;;;;;;10.07;6.65;;;;;;;36.37;35.28;97365.25;4980235;28;20378;-79
2021/05/27 08:16:55;;;;;;;12.65;5.90;;;;;;;37.24;33.08;97350.97;4980010;28;20033;-78
2021/05/27 08:19:21;;;;;;;16.80;7.50;;;;;;;36.14;34.55;97357.22;4996676;28;20026;-79
2021/05/27 08:21:46;;;;;;;13.30;6.88;;;;;;;34.26;38.39;97344.31;4980065;28;20041;-79
2021/05/27 08:24:12;;;;;;;23.23;7.38;;;;;;;33.25;40.69;97340.25;4996139;28;20026;-79
2021/05/27 08:26:37;;;;;;;13.77;8.02;;;;;;;32.36;43.55;97328.63;4996391;28;20079;-80
2021/05/27 08:29:03;;;;;;;19.25;8.38;;;;;;;32.30;43.23;97327.66;4995928;28;20045;-79
2021/05/27 08:31:30;;;;;;;12.95;7.85;;;;;;;32.29;43.54;97323.19;4979877;28;20029;-79
2021/05/27 08:33:55;;;;;;;12.25;7.93;;;;;;;32.18;43.14;97323.97;4979649;28;20057;-79
2021/05/27 08:36:21;;;;;;;17.85;9.32;;;;;;;31.83;45.04;97329.38;4996193;28;20065;-78
2021/05/27 08:38:47;;;;;;;13.73;6.78;;;;;;;32.36;43.10;97334.16;4979599;28;20033;-78
2021/05/27 08:41:13;;;;;;;9.05;6.95;;;;;;;34.28;40.59;97339.34;4996193;28;20026;-78
2021/05/27 08:43:39;;;;;;;9.30;5.35;;;;;;;34.47;37.80;97332.47;4996349;28;20110;-81
2021/05/27 08:46:05;;;;;;;17.25;6.18;;;;;;;33.92;40.57;97342.50;4995725;28;20160;-79
2021/05/27 08:48:31;;;;;;;9.80;6.10;;;;;;;35.29;37.48;97343.81;4995868;28;20026;-79
2021/05/27 08:50:59;;;;;;;10.88;6.25;;;;;;;33.98;39.61;97333.19;4995933;28;20037;-79
2021/05/27 08:53:25;;;;;;;10.85;6.07;;;;;;;33.23;40.38;97317.47;4979543;28;20037;-79
2021/05/27 08:55:51;;;;;;;12.25;5.93;;;;;;;31.86;44.58;97325.31;5013246;28;20072;-77
2021/05/27 08:58:17;;;;;;;15.90;7.88;;;;;;;32.55;43.39;97319.97;4995823;28;20028;-79
2021/05/27 09:00:42;;;;;;;14.43;6.50;;;;;;;33.42;42.59;97323.69;4979581;28;20034;-79
2021/05/27 09:03:10;;;;;;;12.55;5.75;;;;;;;33.48;41.02;97325.50;4995466;28;20030;-79
2021/05/27 09:05:37;;;;;;;8.13;6.40;;;;;;;33.18;41.02;97319.28;4995688;28;20064;-79
2021/05/27 09:08:10;;;;;;;9.90;6.38;;;;;;;32.52;42.09;97308.50;4995247;28;20021;-79
2021/05/27 09:10:43;;;;;;;15.63;8.75;;;;;;;31.90;43.14;97312.69;5013035;28;20053;-79
2021/05/27 09:13:12;;;;;;;13.77;8.20;;;;;;;32.32;42.54;97308.00;4978922;28;20030;-80
2021/05/27 09:15:39;;;;;;;16.55;7.55;;;;;;;31.87;44.87;97310.41;4979141;28;20038;-80
2021/05/27 09:18:05;;;;;;;9.38;6.10;;;;;;;31.41;45.73;97299.94;4994334;28;20066;-79
2021/05/27 09:20:32;;;;;;;13.40;6.68;;;;;;;31.88;43.98;97298.22;4979313;28;20562;-79
2021/05/27 09:23:14;;;;;;;19.55;6.72;;;;;;;32.28;45.04;97290.16;4995000;28;20030;-79
2021/05/27 09:25:42;;;;;;;9.98;6.22;;;;;;;34.04;40.17;97305.28;4995256;28;20029;-79
2021/05/27 09:28:09;;;;;;;9.10;5.53;;;;;;;34.09;37.20;97293.41;4994781;28;20025;-79
2021/05/27 09:30:46;;;;;;;13.50;6.70;;;;;;;33.20;40.39;97294.91;4994891;28;20033;-80
2021/05/27 09:33:12;;;;;;;6.50;5.30;;;;;;;32.91;40.31;97280.13;4978628;28;20038;-79
2021/05/27 09:35:38;;;;;;;8.00;5.30;;;;;;;34.29;39.19;97280.78;4995299;28;20409;-79
2021/05/27 09:38:04;;;;;;;18.98;5.93;;;;;;;33.85;37.84;97275.19;4978471;28;20030;-80
2021/05/27 09:40:33;;;;;;;12.45;6.30;;;;;;;33.19;40.90;97273.84;4995492;28;20087;-79
2021/05/27 09:42:59;;;;;;;15.25;6.38;;;;;;;33.22;40.58;97282.50;4995028;28;20468;-79
2021/05/27 09:45:30;;;;;;;16.98;9.43;;;;;;;32.72;42.40;97276.63;4994598;28;20131;-79
2021/05/27 09:47:56;;;;;;;8.15;6.20;;;;;;;32.53;41.11;97263.94;4994497;28;20034;-79
2021/05/27 09:50:31;;;;;;;17.42;7.47;;;;;;;32.58;41.01;97274.34;4978578;28;20468;-80
2021/05/27 09:53:17;;;;;;;15.60;7.53;;;;;;;32.14;40.86;97256.34;4995956;28;20021;-79
2021/05/27 09:55:43;;;;;;;11.52;6.38;;;;;;;32.74;39.90;97263.38;4978494;28;20132;-79
2021/05/27 09:58:11;;;;;;;21.35;6.60;;;;;;;33.86;40.42;97265.78;4977924;28;20473;-80
2021/05/27 10:00:38;;;;;;;9.77;5.43;;;;;;;34.66;38.30;97267.22;4994473;28;20061;-80
2021/05/27 10:03:29;;;;;;;14.15;6.15;;;;;;;34.14;38.54;97260.22;4994327;28;20028;-79
2021/05/27 10:05:55;;;;;;;;;;;;;;;33.09;39.05;97259.75;4978362;28;20045;-79
2021/05/27 10:08:21;;;;;;;6.43;5.47;;;;;;;34.62;37.01;97254.94;4977784;28;19909;-79
2021/05/27 10:10:51;;;;;;;8.68;5.07;;;;;;;36.55;32.68;97258.13;4994396;28;20030;-79
2021/05/27 10:13:21;;;;;;;10.43;6.03;;;;;;;36.25;33.52;97269.81;4978086;28;20559;-79
2021/05/27 10:15:46;;;;;;;8.48;5.45;;;;;;;36.92;31.78;97265.34;4994763;28;20100;-79
2021/05/27 10:18:17;;;;;;;7.70;4.97;;;;;;;36.49;32.51;97262.78;4994254;28;20053;-79
2021/05/27 10:20:43;;;;;;;9.07;4.95;;;;;;;37.57;30.81;97249.25;4994243;28;20025;-79
2021/05/27 10:23:08;;;;;;;11.10;4.85;;;;;;;37.14;30.56;97244.84;5011290;28;20032;-79
2021/05/27 10:25:34;;;;;;;9.68;6.15;;;;;;;37.30;31.16;97252.19;4993932;28;20018;-79
2021/05/27 10:28:12;;;;;;;6.28;5.20;;;;;;;38.66;29.28;97246.94;4994139;28;20060;-78
2021/05/27 10:30:40;;;;;;;13.25;5.05;;;;;;;39.04;28.97;97260.31;4977539;28;20045;-79
2021/05/27 10:33:07;;;;;;;11.05;4.63;;;;;;;38.78;29.39;97247.50;4986395;28;20453;-79
2021/05/27 10:35:53;;;;;;;10.70;5.57;;;;;;;36.61;31.35;97252.31;4989142;28;20090;-78
2021/05/27 10:38:46;;;;;;;7.50;5.72;;;;;;;34.98;35.44;97239.59;5002799;28;20043;-79
2021/05/27 10:41:18;;;;;;;11.90;5.57;;;;;;;33.61;36.77;97239.22;5005171;28;20049;-78
2021/05/27 10:44:05;;;;;;;16.08;6.20;;;;;;;32.67;40.45;97232.16;5007636;28;20087;-80
2021/05/27 10:46:32;;;;;;;18.08;10.98;;;;;;;32.14;40.08;97223.13;5024880;28;20083;-79
2021/05/27 10:48:59;;;;;;;9.07;5.20;;;;;;;31.33;42.06;97231.09;5013871;28;20061;-78
2021/05/27 10:51:32;;;;;;;10.80;6.00;;;;;;;30.54;43.84;97221.84;5002490;28;20022;-78
2021/05/27 10:54:03;;;;;;;19.20;6.32;;;;;;;30.20;45.30;97216.84;5001749;28;20055;-78
2021/05/27 10:56:34;;;;;;;18.98;11.25;;;;;;;29.98;46.99;97213.63;5013614;28;20103;-79
2021/05/27 10:59:00;;;;;;;14.75;6.93;;;;;;;29.78;47.55;97210.16;5023669;28;20029;-79
2021/05/27 11:01:33;;;;;;;12.90;7.82;;;;;;;30.13;48.11;97206.91;5004730;28;20037;-80
2021/05/27 11:04:03;;;;;;;9.73;6.22;;;;;;;30.30;47.67;97200.59;5015601;28;20402;-79
2021/05/27 11:06:30;;;;;;;18.67;7.13;;;;;;;29.88;48.05;97204.16;5001754;28;20049;-79
2021/05/27 11:09:13;;;;;;;12.25;6.43;;;;;;;29.83;48.21;97206.75;5000572;28;20546;-79
2021/05/27 11:11:57;;;;;;;11.55;6.90;;;;;;;29.51;49.90;97203.13;5006282;28;20451;-79
2021/05/27 11:14:41;;;;;;;12.45;6.28;;;;;;;29.28;49.69;97192.69;5020501;28;20021;-79
2021/05/27 11:17:07;;;;;;;13.82;6.38;;;;;;;29.14;50.74;97190.19;4995163;28;20025;-79
2021/05/27 11:25:13;;;;;;;12.38;6.28;;;;;;;29.50;51.58;97173.91;5015598;28;20037;-79
2021/05/27 11:27:40;;;;;;;11.05;7.10;;;;;;;29.82;51.66;97171.97;5023051;28;20540;-79
2021/05/27 11:30:36;;;;;;;18.08;8.23;;;;;;;30.54;47.79;97174.91;4988276;28;20045;-79
2021/05/27 11:33:21;;;;;;;13.75;8.05;;;;;;;30.18;47.91;97172.03;5015436;28;20053;-79
2021/05/27 11:35:49;;;;;;;13.65;7.63;;;;;;;30.16;48.40;97174.19;5024165;28;20021;-79
2021/05/27 11:38:22;;;;;;;11.68;6.40;;;;;;;31.25;45.42;97160.41;5012590;28;20056;-79
2021/05/27 11:41:00;;;;;;;11.27;6.20;;;;;;;31.66;44.17;97152.13;5004604;28;20026;-79